Time;durP1;ratioP1;P1;durP2;ratioP2;P2;SDS_P1;SDS_P2;PMS_P1;PMS_P2;Temp;Humidity;BMP_temperature;BMP_pressure;BME280_temperature;BME280_humidity;BME280_pressure;Samples;Min_cycle;Max_cycle;Signal;HPM_P1;HPM_P2
2021/11/26 00:02:13;;;;;;;5.65;5.13;;;;;;;;;;10282340;28;20512;-65
2021/11/26 00:07:11;;;;;;;6.95;4.68;;;;;;;;;;10280751;28;20064;-66
2021/11/26 00:12:11;;;;;;;5.43;4.93;;;;;;;;;;10269333;28;20068;-66
2021/11/26 00:17:16;;;;;;;9.35;5.18;;;;;;;;;;10272680;28;20098;-66
2021/11/26 00:22:15;;;;;;;6.60;5.97;;;;;;;;;;10280028;28;20410;-67
2021/11/26 00:27:14;;;;;;;76.35;32.30;;;;;;;;;;10271587;28;20792;-67
2021/11/26 00:32:13;;;;;;;8.88;7.50;;;;;;;;;;10265744;28;20061;-66
2021/11/26 00:37:11;;;;;;;9.05;6.35;;;;;;;;;;10269784;28;20067;-66
2021/11/26 00:42:10;;;;;;;8.10;6.63;;;;;;;;;;10284143;28;20067;-66
2021/11/26 00:47:10;;;;;;;5.97;5.38;;;;;;;;;;10294613;28;20072;-66
2021/11/26 00:52:09;;;;;;;8.57;6.15;;;;;;;;;;10281093;28;20475;-66
2021/11/26 00:57:08;;;;;;;7.35;6.53;;;;;;;;;;10277815;28;20076;-66
2021/11/26 01:02:08;;;;;;;4.45;4.05;;;;;;;;;;10277755;28;20429;-66
2021/11/26 01:07:08;;;;;;;8.85;5.97;;;;;;;;;;10277716;28;20084;-66
2021/11/26 01:12:07;;;;;;;7.57;5.07;;;;;;;;;;10278554;28;20055;-66
2021/11/26 01:17:06;;;;;;;5.30;4.80;;;;;;;;;;10287393;28;20345;-67
2021/11/26 01:22:04;;;;;;;6.20;4.65;;;;;;;;;;10287868;28;20068;-66
2021/11/26 01:27:06;;;;;;;7.50;4.47;;;;;;;;;;10280653;28;20111;-66
2021/11/26 01:32:06;;;;;;;4.13;3.72;;;;;;;;;;10276229;28;20095;-67
2021/11/26 01:37:04;;;;;;;4.32;3.92;;;;;;;;;;10276097;28;20099;-67
2021/11/26 01:42:04;;;;;;;5.20;4.70;;;;;;;;;;10278696;28;20073;-67
2021/11/26 01:47:02;;;;;;;4.60;4.13;;;;;;;;;;10286604;28;20470;-67
2021/11/26 01:52:00;;;;;;;4.57;3.38;;;;;;;;;;10275891;28;20045;-67
2021/11/26 01:56:59;;;;;;;6.00;5.40;;;;;;;;;;10273151;28;20065;-67
2021/11/26 02:01:58;;;;;;;7.03;4.40;;;;;;;;;;10274958;28;20048;-66
2021/11/26 02:06:57;;;;;;;7.07;5.38;;;;;;;;;;10274059;28;20330;-65
2021/11/26 02:11:55;;;;;;;5.10;4.45;;;;;;;;;;10284269;28;20052;-64
2021/11/26 02:16:53;;;;;;;6.45;4.95;;;;;;;;;;10283809;28;20072;-65
2021/11/26 02:21:54;;;;;;;6.05;5.18;;;;;;;;;;10283924;28;20060;-65
2021/11/26 02:26:52;;;;;;;7.07;4.72;;;;;;;;;;10277889;28;20067;-65
2021/11/26 02:31:51;;;;;;;5.47;4.03;;;;;;;;;;10278715;28;20076;-65
2021/11/26 02:36:49;;;;;;;5.10;4.00;;;;;;;;;;10273756;28;20067;-65
2021/11/26 02:41:49;;;;;;;5.78;4.78;;;;;;;;;;10286466;28;20196;-66
2021/11/26 02:46:48;;;;;;;5.78;5.00;;;;;;;;;;10291883;28;20060;-65
2021/11/26 02:51:46;;;;;;;6.65;4.80;;;;;;;;;;10288668;28;20567;-67
2021/11/26 02:56:44;;;;;;;5.45;4.95;;;;;;;;;;10273316;28;20461;-66
2021/11/26 03:01:44;;;;;;;7.78;5.75;;;;;;;;;;10272860;28;20707;-65
2021/11/26 03:06:43;;;;;;;5.43;4.85;;;;;;;;;;10272902;28;20064;-65
2021/11/26 03:11:41;;;;;;;6.05;4.53;;;;;;;;;;10272131;28;20076;-65
2021/11/26 03:16:39;;;;;;;6.95;5.40;;;;;;;;;;10272256;28;20450;-66
2021/11/26 03:21:40;;;;;;;6.40;5.43;;;;;;;;;;10272127;28;21083;-65
2021/11/26 03:26:38;;;;;;;10.75;6.53;;;;;;;;;;10282458;28;20073;-65
2021/11/26 03:31:37;;;;;;;6.97;5.65;;;;;;;;;;10281023;28;20081;-68
2021/11/26 03:36:35;;;;;;;6.43;5.75;;;;;;;;;;10271948;28;20580;-66
2021/11/26 03:41:35;;;;;;;12.85;6.72;;;;;;;;;;10272017;28;20068;-67
2021/11/26 03:46:34;;;;;;;8.90;6.63;;;;;;;;;;10286077;28;20048;-67
2021/11/26 03:51:33;;;;;;;6.85;6.15;;;;;;;;;;10272055;28;20049;-67
2021/11/26 03:56:31;;;;;;;8.15;6.20;;;;;;;;;;10271675;28;20517;-67
2021/11/26 04:01:31;;;;;;;9.27;6.22;;;;;;;;;;10271741;28;20396;-67
2021/11/26 04:06:29;;;;;;;9.20;6.95;;;;;;;;;;10271982;28;20082;-67
2021/11/26 04:11:28;;;;;;;8.75;6.72;;;;;;;;;;10271266;28;20069;-67
2021/11/26 04:16:26;;;;;;;9.50;7.40;;;;;;;;;;10275856;28;20068;-67
2021/11/26 04:21:26;;;;;;;8.80;7.18;;;;;;;;;;10292776;28;20087;-67
2021/11/26 04:26:24;;;;;;;11.20;8.05;;;;;;;;;;10284213;28;20065;-67
2021/11/26 04:31:22;;;;;;;8.23;6.88;;;;;;;;;;10278365;28;20084;-67
2021/11/26 04:36:21;;;;;;;8.07;6.05;;;;;;;;;;10278822;28;20056;-67
2021/11/26 04:41:20;;;;;;;7.82;5.85;;;;;;;;;;10278145;28;20105;-67
2021/11/26 04:46:19;;;;;;;6.65;5.63;;;;;;;;;;10278084;28;20098;-67
2021/11/26 04:51:17;;;;;;;8.63;6.05;;;;;;;;;;10278221;28;20068;-67
2021/11/26 04:56:16;;;;;;;7.43;5.60;;;;;;;;;;10277098;28;20037;-66
2021/11/26 05:01:15;;;;;;;14.27;8.00;;;;;;;;;;10277088;28;20072;-67
2021/11/26 05:06:14;;;;;;;7.82;5.93;;;;;;;;;;10280992;28;20064;-66
2021/11/26 05:11:12;;;;;;;13.25;6.68;;;;;;;;;;10278850;28;20073;-67
2021/11/26 05:16:13;;;;;;;8.13;6.22;;;;;;;;;;10282378;28;20072;-66
2021/11/26 05:21:13;;;;;;;15.30;7.78;;;;;;;;;;10288616;28;20077;-66
2021/11/26 05:26:12;;;;;;;12.52;8.38;;;;;;;;;;10276834;28;20060;-67
2021/11/26 05:31:11;;;;;;;7.70;6.05;;;;;;;;;;10277670;28;20072;-67
2021/11/26 05:36:09;;;;;;;9.13;5.97;;;;;;;;;;10277326;28;20075;-66
2021/11/26 05:41:09;;;;;;;13.07;7.88;;;;;;;;;;10294053;28;20073;-67
2021/11/26 05:46:07;;;;;;;6.15;5.18;;;;;;;;;;10281867;28;20079;-67
2021/11/26 05:51:05;;;;;;;8.07;5.45;;;;;;;;;;10289814;28;20517;-66
2021/11/26 05:56:04;;;;;;;6.72;5.25;;;;;;;;;;10279828;28;20076;-66
2021/11/26 06:01:04;;;;;;;11.68;6.40;;;;;;;;;;10271157;28;20083;-66
2021/11/26 06:06:03;;;;;;;9.88;6.68;;;;;;;;;;10286929;28;20231;-66
2021/11/26 06:11:01;;;;;;;10.75;5.82;;;;;;;;;;10270915;28;20075;-66
2021/11/26 06:15:59;;;;;;;14.80;5.32;;;;;;;;;;10269311;28;20414;-67
2021/11/26 06:20:59;;;;;;;19.70;13.00;;;;;;;;;;10286598;28;20458;-67
2021/11/26 06:25:57;;;;;;;48.25;25.55;;;;;;;;;;10286883;28;20075;-67
2021/11/26 06:30:59;;;;;;;10.98;7.85;;;;;;;;;;10275730;28;20060;-67
2021/11/26 06:35:59;;;;;;;8.85;5.47;;;;;;;;;;10285684;28;20092;-67
2021/11/26 06:40:57;;;;;;;6.45;5.55;;;;;;;;;;10278695;28;20071;-67
2021/11/26 06:45:56;;;;;;;14.73;9.98;;;;;;;;;;10289092;28;20134;-67
2021/11/26 06:50:54;;;;;;;7.20;5.78;;;;;;;;;;10292222;28;20061;-67
2021/11/26 06:55:55;;;;;;;9.02;6.38;;;;;;;;;;10280508;28;20068;-67
2021/11/26 07:00:53;;;;;;;7.03;4.55;;;;;;;;;;10272980;28;20481;-67
2021/11/26 07:05:52;;;;;;;22.50;12.95;;;;;;;;;;10273450;28;20072;-67
2021/11/26 07:10:50;;;;;;;12.52;7.25;;;;;;;;;;10284537;28;20556;-65
2021/11/26 07:15:50;;;;;;;15.82;9.48;;;;;;;;;;10271268;28;20044;-66
2021/11/26 07:20:48;;;;;;;7.55;5.35;;;;;;;;;;10272724;28;20106;-67
2021/11/26 07:25:46;;;;;;;5.30;4.78;;;;;;;;;;10287224;28;20048;-68
2021/11/26 07:30:44;;;;;;;27.90;18.77;;;;;;;;;;10273028;28;20064;-67
2021/11/26 07:35:44;;;;;;;8.75;5.95;;;;;;;;;;10271786;28;20563;-67
2021/11/26 07:40:42;;;;;;;7.57;5.57;;;;;;;;;;10285405;28;20068;-67
2021/11/26 07:45:41;;;;;;;9.07;5.95;;;;;;;;;;10290168;28;20075;-66
2021/11/26 07:50:39;;;;;;;6.70;5.22;;;;;;;;;;10276426;28;20033;-65
2021/11/26 07:55:39;;;;;;;6.22;4.55;;;;;;;;;;10280955;28;20462;-67
2021/11/26 08:00:37;;;;;;;12.88;10.45;;;;;;;;;;10291711;28;20083;-66
2021/11/26 08:05:39;;;;;;;6.07;5.47;;;;;;;;;;10279816;28;20407;-66
2021/11/26 08:10:39;;;;;;;7.28;5.25;;;;;;;;;;10281016;28;20267;-66
2021/11/26 08:15:37;;;;;;;14.63;6.70;;;;;;;;;;10291344;28;20073;-66
2021/11/26 08:20:37;;;;;;;7.10;4.95;;;;;;;;;;10290079;28;20083;-66
2021/11/26 08:25:37;;;;;;;6.65;5.93;;;;;;;;;;10280003;28;20079;-66
2021/11/26 08:30:36;;;;;;;5.80;4.32;;;;;;;;;;10279521;28;20072;-66
2021/11/26 08:35:35;;;;;;;6.75;4.97;;;;;;;;;;10278434;28;20069;-66
2021/11/26 08:40:33;;;;;;;7.80;4.47;;;;;;;;;;10291995;28;20450;-66
2021/11/26 08:45:31;;;;;;;10.00;4.85;;;;;;;;;;10293378;28;20072;-66
2021/11/26 08:50:33;;;;;;;7.00;4.32;;;;;;;;;;10278991;28;20528;-66
2021/11/26 08:55:31;;;;;;;9.85;4.80;;;;;;;;;;10285332;28;20505;-66
2021/11/26 09:00:31;;;;;;;5.97;4.53;;;;;;;;;;10288566;28;20068;-66
2021/11/26 09:05:31;;;;;;;5.00;3.72;;;;;;;;;;10289529;28;20064;-66
2021/11/26 09:10:30;;;;;;;7.72;3.72;;;;;;;;;;10277927;28;20051;-66
2021/11/26 09:15:29;;;;;;;7.80;3.55;;;;;;;;;;10278101;28;20065;-66
2021/11/26 09:20:27;;;;;;;5.20;3.33;;;;;;;;;;10278181;28;20092;-66
2021/11/26 09:25:27;;;;;;;7.57;3.80;;;;;;;;;;10277516;28;20061;-66
2021/11/26 09:30:26;;;;;;;8.38;3.47;;;;;;;;;;10277251;28;20524;-66
2021/11/26 09:35:25;;;;;;;16.23;10.23;;;;;;;;;;10276112;28;20556;-65
2021/11/26 09:40:23;;;;;;;6.68;4.68;;;;;;;;;;10292264;28;20064;-65
2021/11/26 09:45:26;;;;;;;6.75;4.85;;;;;;;;;;10287748;28;20041;-66
2021/11/26 09:50:25;;;;;;;8.32;5.78;;;;;;;;;;10277012;28;20257;-66
2021/11/26 09:55:26;;;;;;;4.28;3.88;;;;;;;;;;10276542;28;20107;-65
2021/11/26 10:00:29;;;;;;;9.73;4.40;;;;;;;;;;10276118;28;20077;-66
2021/11/26 10:05:32;;;;;;;8.05;5.72;;;;;;;;;;10287282;28;20083;-65
2021/11/26 10:10:33;;;;;;;8.20;6.90;;;;;;;;;;10286873;28;20517;-66
2021/11/26 10:15:33;;;;;;;17.88;10.95;;;;;;;;;;10285894;28;20533;-65
2021/11/26 10:20:32;;;;;;;8.88;5.65;;;;;;;;;;10286429;28;20080;-65
2021/11/26 10:25:30;;;;;;;11.32;8.73;;;;;;;;;;10274996;28;20068;-65
2021/11/26 10:30:30;;;;;;;6.13;5.30;;;;;;;;;;10275207;28;20049;-66
2021/11/26 10:35:31;;;;;;;7.65;5.85;;;;;;;;;;10286698;28;20092;-65
2021/11/26 10:40:32;;;;;;;7.95;6.78;;;;;;;;;;10287257;28;20083;-66
2021/11/26 10:45:44;;;;;;;14.63;9.32;;;;;;;;;;10291925;28;20481;-65
2021/11/26 10:50:57;;;;;;;9.75;6.72;;;;;;;;;;10293452;28;20080;-66
2021/11/26 11:01:21;;;;;;;6.72;5.93;;;;;;;;;;10273736;28;20087;-66
2021/11/26 11:06:24;;;;;;;19.77;7.60;;;;;;;;;;10272873;28;20049;-66
2021/11/26 11:11:23;;;;;;;11.70;8.35;;;;;;;;;;10284740;28;20095;-66
2021/11/26 11:16:21;;;;;;;62.25;43.15;;;;;;;;;;10283448;28;20072;-66
2021/11/26 11:21:20;;;;;;;15.23;13.18;;;;;;;;;;10283799;28;20478;-66
2021/11/26 11:26:20;;;;;;;19.75;13.63;;;;;;;;;;10279344;28;20076;-66
2021/11/26 11:31:18;;;;;;;16.75;13.32;;;;;;;;;;10271827;28;20069;-66
2021/11/26 11:36:18;;;;;;;9.48;8.27;;;;;;;;;;10272148;28;20407;-66
2021/11/26 11:41:19;;;;;;;7.68;6.55;;;;;;;;;;10285182;28;20121;-66
2021/11/26 11:46:21;;;;;;;13.20;8.10;;;;;;;;;;10286027;28;20057;-66
2021/11/26 11:51:21;;;;;;;23.05;16.23;;;;;;;;;;10272577;28;20125;-66
2021/11/26 11:56:21;;;;;;;12.13;10.45;;;;;;;;;;10271625;28;20072;-66
2021/11/26 12:01:22;;;;;;;7.70;6.95;;;;;;;;;;10271891;28;20073;-66
2021/11/26 12:06:21;;;;;;;8.00;6.90;;;;;;;;;;10271276;28;20068;-66
2021/11/26 12:11:24;;;;;;;20.45;15.80;;;;;;;;;;10271446;28;20069;-66
2021/11/26 12:16:25;;;;;;;47.15;32.78;;;;;;;;;;10282640;28;20088;-66
2021/11/26 12:21:24;;;;;;;59.63;47.13;;;;;;;;;;10271506;28;20506;-65
2021/11/26 12:26:26;;;;;;;22.92;18.85;;;;;;;;;;10270954;28;20089;-66
2021/11/26 12:31:30;;;;;;;14.98;12.88;;;;;;;;;;10271323;28;20081;-66
2021/11/26 12:36:39;;;;;;;12.10;10.57;;;;;;;;;;10273430;28;20075;-66
2021/11/26 12:41:38;;;;;;;17.20;13.55;;;;;;;;;;10291123;28;20338;-66
2021/11/26 12:46:40;;;;;;;24.15;18.75;;;;;;;;;;10292552;28;20072;-66
2021/11/26 12:51:40;;;;;;;21.35;17.13;;;;;;;;;;10278324;28;20077;-65
2021/11/26 12:56:39;;;;;;;16.23;13.35;;;;;;;;;;10282590;28;20049;-66
2021/11/26 13:01:48;;;;;;;13.45;12.13;;;;;;;;;;10277619;28;20069;-66
2021/11/26 13:06:48;;;;;;;11.45;10.20;;;;;;;;;;10277944;28;20540;-66
2021/11/26 13:11:47;;;;;;;15.82;12.15;;;;;;;;;;10281586;28;20458;-67
2021/11/26 13:17:07;;;;;;;10.77;9.68;;;;;;;;;;10277360;28;20076;-66
2021/11/26 13:22:14;;;;;;;17.85;12.18;;;;;;;;;;10276890;28;20075;-66
2021/11/26 13:27:13;;;;;;;12.38;9.55;;;;;;;;;;10275892;28;20069;-66
2021/11/26 13:32:14;;;;;;;11.38;8.90;;;;;;;;;;10278602;28;20091;-66
2021/11/26 13:37:13;;;;;;;25.25;16.38;;;;;;;;;;10285695;28;20083;-66
2021/11/26 13:42:12;;;;;;;22.83;16.95;;;;;;;;;;10279897;28;20072;-67
2021/11/26 13:47:10;;;;;;;21.52;15.38;;;;;;;;;;10285894;28;20458;-66
2021/11/26 13:52:11;;;;;;;27.67;17.52;;;;;;;;;;10275823;28;20485;-66
2021/11/26 13:57:30;;;;;;;28.33;18.55;;;;;;;;;;10275838;28;20067;-66
2021/11/26 14:02:29;;;;;;;35.53;25.25;;;;;;;;;;10275483;28;20536;-67
2021/11/26 14:07:29;;;;;;;45.90;37.90;;;;;;;;;;10277929;28;20492;-66
2021/11/26 14:12:29;;;;;;;42.42;29.52;;;;;;;;;;10283912;28;20045;-67
2021/11/26 14:17:29;;;;;;;45.75;27.52;;;;;;;;;;10275130;28;20064;-66
2021/11/26 14:22:31;;;;;;;39.97;25.00;;;;;;;;;;10276789;28;20080;-66
2021/11/26 14:27:30;;;;;;;33.03;25.52;;;;;;;;;;10282664;28;20071;-66
2021/11/26 14:32:28;;;;;;;34.60;20.92;;;;;;;;;;10280796;28;20083;-66
2021/11/26 14:37:27;;;;;;;109.05;51.35;;;;;;;;;;10273952;28;20037;-67
2021/11/26 14:42:31;;;;;;;26.92;16.88;;;;;;;;;;10280005;28;20528;-67
2021/11/26 14:47:30;;;;;;;26.45;17.33;;;;;;;;;;10286217;28;20071;-67
2021/11/26 14:52:29;;;;;;;51.35;28.00;;;;;;;;;;10292140;28;20068;-67
2021/11/26 14:57:28;;;;;;;26.92;22.10;;;;;;;;;;10274017;28;20075;-66
2021/11/26 15:02:27;;;;;;;26.83;20.25;;;;;;;;;;10273449;28;20076;-67
2021/11/26 15:07:28;;;;;;;134.93;81.65;;;;;;;;;;10272684;28;20055;-67
2021/11/26 15:12:28;;;;;;;28.13;19.38;;;;;;;;;;10272886;28;20076;-67
2021/11/26 15:17:27;;;;;;;19.10;16.17;;;;;;;;;;10272821;28;20099;-67
2021/11/26 15:22:26;;;;;;;31.20;24.17;;;;;;;;;;10272516;28;20675;-67
2021/11/26 15:27:25;;;;;;;26.30;20.35;;;;;;;;;;10274966;28;20438;-66
2021/11/26 15:32:24;;;;;;;25.88;19.52;;;;;;;;;;10279257;28;20510;-67
2021/11/26 15:37:23;;;;;;;36.95;27.42;;;;;;;;;;10272177;28;20927;-66
2021/11/26 15:42:22;;;;;;;25.27;18.75;;;;;;;;;;10275800;28;20080;-66
2021/11/26 15:47:20;;;;;;;17.55;15.65;;;;;;;;;;10304334;28;20072;-67
2021/11/26 15:52:19;;;;;;;26.52;19.80;;;;;;;;;;10291780;28;20073;-67
2021/11/26 15:57:18;;;;;;;37.70;29.20;;;;;;;;;;10290905;28;20060;-67
2021/11/26 16:02:17;;;;;;;30.77;24.33;;;;;;;;;;10299241;28;20474;-67
2021/11/26 16:07:23;;;;;;;42.05;29.90;;;;;;;;;;10282618;28;20064;-66
2021/11/26 16:12:22;;;;;;;58.88;36.45;;;;;;;;;;10286140;28;20132;-67
2021/11/26 16:17:21;;;;;;;59.78;37.58;;;;;;;;;;10292458;28;20060;-67
2021/11/26 16:22:19;;;;;;;118.05;73.82;;;;;;;;;;10293525;28;20168;-67
2021/11/26 16:27:18;;;;;;;64.40;46.55;;;;;;;;;;10278902;28;20083;-67
2021/11/26 16:32:23;;;;;;;98.55;77.30;;;;;;;;;;10277695;28;20084;-67
2021/11/26 16:37:22;;;;;;;57.08;45.20;;;;;;;;;;10278697;28;20061;-67
2021/11/26 16:42:23;;;;;;;109.40;73.70;;;;;;;;;;10278353;28;20068;-67
2021/11/26 16:47:23;;;;;;;67.28;47.05;;;;;;;;;;10280508;28;20497;-67
2021/11/26 16:52:21;;;;;;;45.50;38.28;;;;;;;;;;10312131;28;20083;-66
2021/11/26 16:57:20;;;;;;;70.18;50.90;;;;;;;;;;10284423;28;20052;-67
2021/11/26 17:02:19;;;;;;;81.40;54.05;;;;;;;;;;10281057;28;20075;-66
2021/11/26 17:07:19;;;;;;;67.13;47.47;;;;;;;;;;10292211;28;20068;-67
2021/11/26 17:12:23;;;;;;;39.85;29.58;;;;;;;;;;10277710;28;20041;-67
2021/11/26 17:17:22;;;;;;;68.63;43.00;;;;;;;;;;10277585;28;20098;-67
2021/11/26 17:22:22;;;;;;;93.60;63.72;;;;;;;;;;10276207;28;20498;-67
2021/11/26 17:27:20;;;;;;;117.95;87.63;;;;;;;;;;10277311;28;20627;-67
2021/11/26 17:32:19;;;;;;;109.00;78.95;;;;;;;;;;10276499;28;20536;-67
2021/11/26 17:37:18;;;;;;;82.45;57.30;;;;;;;;;;10278960;28;20072;-66
2021/11/26 17:42:18;;;;;;;69.10;47.20;;;;;;;;;;10285448;28;20273;-67
2021/11/26 17:47:18;;;;;;;72.70;51.28;;;;;;;;;;10276976;28;20057;-67
2021/11/26 17:52:17;;;;;;;82.38;59.30;;;;;;;;;;10291815;28;20068;-65
2021/11/26 17:57:15;;;;;;;68.57;50.85;;;;;;;;;;10288718;28;20072;-65
2021/11/26 18:02:19;;;;;;;80.22;59.22;;;;;;;;;;10295399;28;20307;-66
2021/11/26 18:07:22;;;;;;;43.17;31.70;;;;;;;;;;10297823;28;20108;-66
2021/11/26 18:12:28;;;;;;;96.97;60.97;;;;;;;;;;10293047;28;20091;-65
2021/11/26 18:17:29;;;;;;;95.15;60.72;;;;;;;;;;10287911;28;20482;-66
2021/11/26 18:22:27;;;;;;;139.00;76.07;;;;;;;;;;10273200;28;20087;-66
2021/11/26 18:27:26;;;;;;;169.40;82.03;;;;;;;;;;10282639;28;20075;-66
2021/11/26 18:32:24;;;;;;;64.63;37.97;;;;;;;;;;10277954;28;20680;-66
2021/11/26 18:37:25;;;;;;;92.03;57.65;;;;;;;;;;10274671;28;20537;-64
2021/11/26 18:42:26;;;;;;;134.98;87.10;;;;;;;;;;10274365;28;20994;-66
2021/11/26 18:47:25;;;;;;;89.55;58.05;;;;;;;;;;10276297;28;20532;-66
2021/11/26 18:52:24;;;;;;;87.40;58.92;;;;;;;;;;10272867;28;20072;-65
2021/11/26 18:57:23;;;;;;;100.63;60.97;;;;;;;;;;10273987;28;20076;-65
2021/11/26 19:02:21;;;;;;;143.32;84.25;;;;;;;;;;10274382;28;20073;-65
2021/11/26 19:07:20;;;;;;;49.72;35.60;;;;;;;;;;10272856;28;20064;-65
2021/11/26 19:12:20;;;;;;;30.60;25.30;;;;;;;;;;10273342;28;20076;-66
2021/11/26 19:17:18;;;;;;;40.47;32.42;;;;;;;;;;10275337;28;20076;-65
2021/11/26 19:22:17;;;;;;;37.72;28.30;;;;;;;;;;10273493;28;20068;-65
2021/11/26 19:27:15;;;;;;;87.88;47.28;;;;;;;;;;10272805;28;20064;-65
2021/11/26 19:32:15;;;;;;;53.63;26.55;;;;;;;;;;10273172;28;20080;-65
2021/11/26 19:37:13;;;;;;;30.88;23.15;;;;;;;;;;10273071;28;20087;-66
2021/11/26 19:42:12;;;;;;;23.92;18.17;;;;;;;;;;10273384;28;20072;-66
2021/11/26 19:47:10;;;;;;;18.27;15.90;;;;;;;;;;10278826;28;20448;-66
2021/11/26 19:52:10;;;;;;;24.83;17.50;;;;;;;;;;10294578;28;20459;-64
2021/11/26 19:57:08;;;;;;;15.48;13.05;;;;;;;;;;10311363;28;20071;-65
2021/11/26 20:02:07;;;;;;;30.17;18.20;;;;;;;;;;10302319;28;20076;-64
2021/11/26 20:07:05;;;;;;;12.10;9.35;;;;;;;;;;10272837;28;20079;-65
2021/11/26 20:12:06;;;;;;;10.57;9.48;;;;;;;;;;10273645;28;20084;-65
2021/11/26 20:17:05;;;;;;;10.57;8.75;;;;;;;;;;10275104;28;20068;-65
2021/11/26 20:22:04;;;;;;;13.93;9.73;;;;;;;;;;10280795;28;20080;-65
2021/11/26 20:27:03;;;;;;;57.35;30.13;;;;;;;;;;10273268;28;20597;-65
2021/11/26 20:32:05;;;;;;;69.85;36.67;;;;;;;;;;10272644;28;20080;-66
2021/11/26 20:37:04;;;;;;;83.47;42.25;;;;;;;;;;10272572;28;20466;-64
2021/11/26 20:42:02;;;;;;;17.08;10.77;;;;;;;;;;10272056;28;20065;-63
2021/11/26 20:47:01;;;;;;;17.67;13.57;;;;;;;;;;10270712;28;20045;-64
2021/11/26 20:52:01;;;;;;;32.25;21.10;;;;;;;;;;10294067;28;20069;-65
2021/11/26 20:56:59;;;;;;;23.38;16.30;;;;;;;;;;10276686;28;20524;-64
2021/11/26 21:02:18;;;;;;;18.15;13.90;;;;;;;;;;10319005;28;20091;-65
2021/11/26 21:07:18;;;;;;;15.73;12.77;;;;;;;;;;10312652;28;20071;-64
2021/11/26 21:12:16;;;;;;;13.52;10.98;;;;;;;;;;10278264;28;20065;-65
2021/11/26 21:17:15;;;;;;;10.93;8.35;;;;;;;;;;10278536;28;20417;-65
2021/11/26 21:22:14;;;;;;;9.68;7.95;;;;;;;;;;10278825;28;20414;-65
2021/11/26 21:27:14;;;;;;;10.90;8.32;;;;;;;;;;10278844;28;20077;-65
2021/11/26 21:32:13;;;;;;;14.45;10.07;;;;;;;;;;10277978;28;20080;-65
2021/11/26 21:37:12;;;;;;;8.63;7.57;;;;;;;;;;10280317;28;20040;-65
2021/11/26 21:42:10;;;;;;;14.45;11.63;;;;;;;;;;10287558;28;20056;-65
2021/11/26 21:47:10;;;;;;;57.47;31.42;;;;;;;;;;10275380;28;20065;-65
2021/11/26 21:52:08;;;;;;;22.00;12.13;;;;;;;;;;10291874;28;20077;-65
2021/11/26 21:57:07;;;;;;;17.88;11.00;;;;;;;;;;10276829;28;20056;-65
2021/11/26 22:02:05;;;;;;;19.02;15.90;;;;;;;;;;10279170;28;20080;-66
2021/11/26 22:07:05;;;;;;;10.80;9.70;;;;;;;;;;10293740;28;20061;-65
2021/11/26 22:12:03;;;;;;;9.73;8.35;;;;;;;;;;10274374;28;20049;-65
2021/11/26 22:17:02;;;;;;;8.10;6.40;;;;;;;;;;10275033;28;20828;-65
2021/11/26 22:22:00;;;;;;;161.98;68.43;;;;;;;;;;10276513;28;20064;-65
2021/11/26 22:27:00;;;;;;;8.77;7.45;;;;;;;;;;10274618;28;20075;-65
2021/11/26 22:31:59;;;;;;;7.75;6.53;;;;;;;;;;10273351;28;20053;-66
2021/11/26 22:36:57;;;;;;;7.57;6.88;;;;;;;;;;10273385;28;20057;-65
2021/11/26 22:41:56;;;;;;;11.00;9.07;;;;;;;;;;10273721;28;20075;-64
2021/11/26 22:46:56;;;;;;;24.08;16.08;;;;;;;;;;10273270;28;20117;-65
2021/11/26 22:51:54;;;;;;;9.68;8.20;;;;;;;;;;10287005;28;20076;-65
2021/11/26 22:56:52;;;;;;;9.00;8.10;;;;;;;;;;10289029;28;20080;-65
2021/11/26 23:01:50;;;;;;;10.07;9.05;;;;;;;;;;10273418;28;20120;-65
2021/11/26 23:06:51;;;;;;;7.82;6.68;;;;;;;;;;10273218;28;20593;-65
2021/11/26 23:11:50;;;;;;;12.45;9.07;;;;;;;;;;10271280;28;20111;-65
2021/11/26 23:16:55;;;;;;;9.00;7.20;;;;;;;;;;10274926;28;20075;-64
2021/11/26 23:21:55;;;;;;;8.85;7.95;;;;;;;;;;10277977;28;20060;-65
2021/11/26 23:26:55;;;;;;;7.75;6.95;;;;;;;;;;10279730;28;20510;-65
2021/11/26 23:31:54;;;;;;;8.55;7.68;;;;;;;;;;10280490;28;20069;-65
2021/11/26 23:36:56;;;;;;;11.23;8.63;;;;;;;;;;10278749;28;20072;-65
2021/11/26 23:41:56;;;;;;;8.95;8.00;;;;;;;;;;10278880;28;20064;-65
2021/11/26 23:46:54;;;;;;;8.95;8.05;;;;;;;;;;10279350;28;20072;-64
2021/11/26 23:51:54;;;;;;;8.70;7.68;;;;;;;;;;10297094;28;20497;-66
2021/11/26 23:56:53;;;;;;;7.20;6.50;;;;;;;;;;10282753;28;20075;-65
